Time;durP1;ratioP1;P1;durP2;ratioP2;P2;SDS_P1;SDS_P2;PMS_P1;PMS_P2;Temp;Humidity;BMP_temperature;BMP_pressure;BME280_temperature;BME280_humidity;BME280_pressure;Samples;Min_cycle;Max_cycle;Signal;HPM_P1;HPM_P2
2023/12/27 00:02:04;;;;;;;100.15;22.15;;;3.00;99.90;;;;;;5115129;27;20509;-81
2023/12/27 00:04:30;;;;;;;112.53;25.65;;;3.10;99.90;;;;;;5139087;27;21383;-81
2023/12/27 00:06:56;;;;;;;81.65;22.83;;;3.10;99.90;;;;;;5138652;27;20027;-82
2023/12/27 00:09:23;;;;;;;89.43;21.33;;;3.20;99.90;;;;;;5120473;27;20022;-82
2023/12/27 00:11:48;;;;;;;121.55;26.58;;;3.20;99.90;;;;;;5138723;27;20027;-82
2023/12/27 00:14:14;;;;;;;107.43;24.85;;;3.20;99.90;;;;;;5138789;27;20042;-82
2023/12/27 00:16:40;;;;;;;89.43;24.38;;;3.20;99.90;;;;;;5138257;27;20038;-81
2023/12/27 00:19:06;;;;;;;177.27;31.23;;;3.30;99.90;;;;;;5120213;27;20047;-81
2023/12/27 00:21:32;;;;;;;82.10;21.45;;;3.30;99.90;;;;;;5138338;27;20011;-81
2023/12/27 00:23:57;;;;;;;217.35;29.75;;;3.30;99.90;;;;;;5138647;27;20036;-80
2023/12/27 00:26:23;;;;;;;130.32;23.35;;;3.30;99.90;;;;;;5118263;27;20057;-81
2023/12/27 00:28:49;;;;;;;89.95;21.02;;;3.30;99.90;;;;;;5138525;27;20034;-81
2023/12/27 00:31:14;;;;;;;91.43;19.70;;;3.30;99.90;;;;;;5119746;27;20046;-83
2023/12/27 00:33:40;;;;;;;75.93;20.67;;;3.20;99.90;;;;;;5138195;27;20072;-81
2023/12/27 00:36:07;;;;;;;131.05;22.83;;;3.20;99.90;;;;;;5138209;27;20038;-80
2023/12/27 00:38:35;;;;;;;82.18;21.58;;;3.10;99.90;;;;;;5119771;27;20019;-80
2023/12/27 00:41:01;;;;;;;62.75;18.63;;;3.10;99.90;;;;;;5138118;27;20019;-82
2023/12/27 00:43:27;;;;;;;56.95;17.85;;;3.10;99.90;;;;;;5116452;28;20077;-81
2023/12/27 00:45:52;;;;;;;94.53;20.70;;;3.00;99.90;;;;;;5114216;27;20039;-81
2023/12/27 00:48:18;;;;;;;96.60;16.73;;;3.00;99.90;;;;;;5137986;27;20024;-78
2023/12/27 00:50:44;;;;;;;69.97;18.10;;;2.90;99.90;;;;;;5119559;27;20033;-80
2023/12/27 00:53:09;;;;;;;78.18;15.88;;;2.80;99.90;;;;;;5137756;27;20102;-79
2023/12/27 00:55:35;;;;;;;122.93;20.60;;;2.70;99.90;;;;;;5137487;27;20146;-79
2023/12/27 00:58:00;;;;;;;59.80;17.70;;;2.60;99.90;;;;;;5115969;28;20554;-79
2023/12/27 01:00:26;;;;;;;45.33;14.90;;;2.70;99.90;;;;;;5113255;27;20087;-79
2023/12/27 01:02:52;;;;;;;65.47;15.82;;;2.70;99.90;;;;;;5119167;27;20027;-80
2023/12/27 01:05:18;;;;;;;83.50;18.05;;;2.60;99.90;;;;;;5116871;27;20038;-79
2023/12/27 01:07:43;;;;;;;33.75;13.43;;;2.60;99.90;;;;;;5115767;28;20030;-80
2023/12/27 01:10:09;;;;;;;38.33;14.70;;;2.60;99.90;;;;;;5113166;27;20541;-80
2023/12/27 01:12:35;;;;;;;49.70;14.23;;;2.50;99.90;;;;;;5137745;27;20533;-79
2023/12/27 01:15:01;;;;;;;33.03;13.00;;;2.50;99.90;;;;;;5137464;27;20080;-79
2023/12/27 01:17:26;;;;;;;20.98;12.07;;;2.50;99.90;;;;;;5119189;27;20421;-79
2023/12/27 01:19:52;;;;;;;28.48;12.52;;;2.40;99.90;;;;;;5137355;27;20028;-79
2023/12/27 01:22:17;;;;;;;26.02;12.70;;;2.30;99.90;;;;;;5137557;27;20034;-80
2023/12/27 01:24:43;;;;;;;22.50;11.93;;;2.30;99.90;;;;;;5137094;27;20023;-81
2023/12/27 01:27:09;;;;;;;20.50;11.80;;;2.40;99.90;;;;;;5118813;27;20027;-80
2023/12/27 01:29:34;;;;;;;20.80;11.80;;;2.40;99.90;;;;;;5137070;27;20095;-79
2023/12/27 01:32:00;;;;;;;42.40;14.57;;;2.50;99.90;;;;;;5136914;27;20029;-80
2023/12/27 01:34:25;;;;;;;27.77;12.43;;;2.50;99.90;;;;;;5137153;27;20046;-80
2023/12/27 01:36:51;;;;;;;19.92;12.57;;;2.50;99.90;;;;;;5115036;28;20646;-80
2023/12/27 01:39:17;;;;;;;24.23;11.13;;;2.50;99.90;;;;;;5129719;27;20044;-81
2023/12/27 01:41:42;;;;;;;29.25;12.68;;;2.50;99.90;;;;;;5118558;27;20027;-80
2023/12/27 01:44:08;;;;;;;26.35;12.10;;;2.50;99.90;;;;;;5136999;27;20023;-80
2023/12/27 01:46:34;;;;;;;19.17;12.10;;;2.50;99.90;;;;;;5136719;27;20031;-79
2023/12/27 01:49:00;;;;;;;41.67;13.23;;;2.40;99.90;;;;;;5136723;27;20482;-79
2023/12/27 01:51:27;;;;;;;41.78;12.85;;;2.30;99.90;;;;;;5137030;27;20026;-79
2023/12/27 01:53:53;;;;;;;36.58;12.57;;;2.30;99.90;;;;;;5118128;27;20049;-79
2023/12/27 01:56:18;;;;;;;25.13;12.05;;;2.30;99.90;;;;;;5136956;27;20515;-79
2023/12/27 01:58:44;;;;;;;27.20;12.25;;;2.20;99.90;;;;;;5136545;27;20035;-79
2023/12/27 02:01:10;;;;;;;36.28;11.73;;;2.20;99.90;;;;;;5118313;27;20031;-78
2023/12/27 02:03:36;;;;;;;44.85;11.20;;;2.20;99.90;;;;;;5115506;28;20020;-79
2023/12/27 02:06:02;;;;;;;35.78;11.90;;;2.10;99.90;;;;;;5137585;27;20026;-80
2023/12/27 02:08:28;;;;;;;32.60;11.32;;;2.10;99.90;;;;;;5136539;27;20031;-79
2023/12/27 02:10:55;;;;;;;45.25;13.48;;;2.00;99.90;;;;;;5136790;27;20030;-79
2023/12/27 02:13:20;;;;;;;35.83;13.50;;;2.00;99.90;;;;;;5118158;27;20502;-80
2023/12/27 02:15:46;;;;;;;36.25;12.18;;;2.00;99.90;;;;;;5114655;28;20020;-79
2023/12/27 02:18:13;;;;;;;34.72;11.55;;;2.00;99.90;;;;;;5112415;28;20027;-78
2023/12/27 02:20:40;;;;;;;45.08;12.85;;;1.90;99.90;;;;;;5136669;28;20025;-79
2023/12/27 02:23:10;;;;;;;55.22;13.98;;;1.90;99.90;;;;;;5136359;28;20023;-79
2023/12/27 02:25:35;;;;;;;49.97;12.43;;;2.00;99.90;;;;;;5136634;28;20384;-79
2023/12/27 02:28:01;;;;;;;53.03;15.02;;;2.00;99.90;;;;;;5136246;28;20029;-79
2023/12/27 02:30:27;;;;;;;77.05;12.52;;;2.00;99.90;;;;;;5136542;28;20518;-79
2023/12/27 02:32:52;;;;;;;46.90;12.45;;;2.00;99.90;;;;;;5136056;28;20057;-79
2023/12/27 02:35:18;;;;;;;69.07;12.95;;;1.90;99.90;;;;;;5117860;28;20035;-78
2023/12/27 02:37:44;;;;;;;54.05;12.85;;;1.90;99.90;;;;;;5117516;28;20023;-79
2023/12/27 02:40:10;;;;;;;29.88;11.52;;;1.90;99.90;;;;;;5136378;28;20518;-80
2023/12/27 02:42:37;;;;;;;21.40;11.45;;;2.00;99.90;;;;;;5136083;28;20526;-79
2023/12/27 02:45:04;;;;;;;57.78;12.85;;;2.00;99.90;;;;;;5117987;28;20495;-79
2023/12/27 02:47:29;;;;;;;44.10;12.50;;;2.00;99.90;;;;;;5135893;28;20509;-79
2023/12/27 02:49:55;;;;;;;44.30;13.10;;;2.00;99.90;;;;;;5137861;27;20031;-79
2023/12/27 02:52:21;;;;;;;27.17;11.55;;;2.00;99.90;;;;;;5119950;27;20015;-79
2023/12/27 02:54:46;;;;;;;42.25;12.50;;;2.10;99.90;;;;;;5140151;27;20075;-79
2023/12/27 02:57:13;;;;;;;24.90;11.02;;;2.10;99.90;;;;;;5139988;27;20035;-79
2023/12/27 02:59:38;;;;;;;28.55;12.93;;;2.10;99.90;;;;;;5140373;27;20020;-80
2023/12/27 03:02:04;;;;;;;45.88;14.18;;;2.10;99.90;;;;;;5139646;27;20038;-80
2023/12/27 03:04:30;;;;;;;58.03;12.55;;;2.00;99.90;;;;;;5140233;27;20514;-79
2023/12/27 03:06:55;;;;;;;74.85;13.45;;;2.00;99.90;;;;;;5121399;27;20042;-80
2023/12/27 03:09:21;;;;;;;56.72;11.85;;;1.90;99.90;;;;;;5140008;27;20015;-79
2023/12/27 03:11:47;;;;;;;39.42;12.93;;;1.80;99.90;;;;;;5139661;27;20019;-80
2023/12/27 03:14:14;;;;;;;25.08;12.00;;;1.80;99.90;;;;;;5139934;27;20026;-80
2023/12/27 03:16:40;;;;;;;174.25;18.55;;;1.90;99.90;;;;;;5139286;27;20430;-80
2023/12/27 03:19:05;;;;;;;103.55;17.10;;;1.80;99.90;;;;;;5121339;27;20027;-79
2023/12/27 03:21:31;;;;;;;185.00;20.45;;;1.80;99.90;;;;;;5140283;27;20410;-79
2023/12/27 03:23:57;;;;;;;154.38;17.73;;;1.80;99.90;;;;;;5121290;27;20015;-79
2023/12/27 03:26:22;;;;;;;277.50;22.80;;;1.80;99.90;;;;;;5139675;27;20027;-80
2023/12/27 03:28:48;;;;;;;176.68;18.45;;;1.80;99.90;;;;;;5139634;27;20019;-80
2023/12/27 03:31:14;;;;;;;69.93;14.15;;;1.80;99.90;;;;;;5139334;27;20031;-80
2023/12/27 03:33:39;;;;;;;134.18;18.45;;;1.80;99.90;;;;;;5120882;27;20024;-79
2023/12/27 03:36:05;;;;;;;94.80;14.93;;;1.80;99.90;;;;;;5139198;27;20077;-80
2023/12/27 03:38:31;;;;;;;46.10;14.35;;;1.90;99.90;;;;;;5139285;27;20034;-80
2023/12/27 03:40:57;;;;;;;68.03;14.75;;;1.90;99.90;;;;;;5139271;27;20031;-80
2023/12/27 03:43:22;;;;;;;111.97;17.48;;;1.90;99.90;;;;;;5139296;27;20015;-79
2023/12/27 03:45:50;;;;;;;106.95;17.27;;;2.00;99.90;;;;;;5138950;27;20027;-79
2023/12/27 03:48:16;;;;;;;47.20;14.20;;;2.00;99.90;;;;;;5139130;27;20118;-79
2023/12/27 03:50:42;;;;;;;51.00;14.82;;;2.00;99.90;;;;;;5139085;27;20074;-80
2023/12/27 03:53:07;;;;;;;108.47;16.98;;;2.00;99.90;;;;;;5138961;27;20015;-79
2023/12/27 03:55:33;;;;;;;72.80;14.98;;;2.00;99.90;;;;;;5138713;27;20107;-80
2023/12/27 03:57:59;;;;;;;129.27;19.58;;;2.10;99.90;;;;;;5120745;27;20023;-80
2023/12/27 04:00:25;;;;;;;116.07;17.83;;;2.10;99.90;;;;;;5138799;27;20031;-79
2023/12/27 04:02:50;;;;;;;70.43;15.98;;;2.20;99.90;;;;;;5137723;27;20053;-78
2023/12/27 04:05:16;;;;;;;62.78;15.10;;;2.20;99.90;;;;;;5119390;27;20076;-79
2023/12/27 04:07:42;;;;;;;75.80;14.88;;;2.20;99.90;;;;;;5118599;27;20122;-80
2023/12/27 04:10:07;;;;;;;77.85;15.15;;;2.00;99.90;;;;;;5139080;27;20026;-80
2023/12/27 04:12:33;;;;;;;55.70;14.70;;;2.10;99.90;;;;;;5120266;27;20026;-78
2023/12/27 04:14:59;;;;;;;65.13;15.77;;;2.10;99.90;;;;;;5120141;27;20152;-80
2023/12/27 04:17:25;;;;;;;100.00;16.60;;;2.10;99.90;;;;;;5138199;27;20072;-79
2023/12/27 04:19:52;;;;;;;50.47;13.48;;;2.10;99.90;;;;;;5117445;27;20020;-79
2023/12/27 04:22:17;;;;;;;47.65;13.20;;;2.10;99.90;;;;;;5120183;27;20023;-80
2023/12/27 04:24:43;;;;;;;67.50;14.20;;;2.10;99.90;;;;;;5117418;27;20514;-80
2023/12/27 04:27:08;;;;;;;59.45;14.00;;;2.10;99.90;;;;;;5138451;27;20523;-78
2023/12/27 04:29:34;;;;;;;60.17;17.08;;;2.10;99.90;;;;;;5138626;27;20034;-79
2023/12/27 04:32:00;;;;;;;61.85;13.95;;;2.00;99.90;;;;;;5138073;27;20407;-79
2023/12/27 04:34:25;;;;;;;55.50;14.68;;;2.00;99.90;;;;;;5117243;28;20027;-80
2023/12/27 04:36:51;;;;;;;37.45;12.93;;;2.00;99.90;;;;;;5119853;27;20500;-79
2023/12/27 04:39:17;;;;;;;30.85;13.88;;;2.00;99.90;;;;;;5116439;28;20034;-79
2023/12/27 04:41:42;;;;;;;56.67;13.88;;;2.10;99.90;;;;;;5138098;27;20053;-79
2023/12/27 04:44:08;;;;;;;66.65;14.38;;;2.10;99.90;;;;;;5116170;28;20023;-79
2023/12/27 04:46:37;;;;;;;58.42;13.88;;;2.10;99.90;;;;;;5117707;27;20564;-80
2023/12/27 04:49:08;;;;;;;40.78;14.15;;;2.00;99.90;;;;;;5137892;27;20038;-80
2023/12/27 04:51:34;;;;;;;29.73;11.90;;;2.00;99.90;;;;;;5137884;27;20015;-82
2023/12/27 04:54:01;;;;;;;27.33;12.00;;;2.00;99.90;;;;;;5137510;27;20495;-81
2023/12/27 04:56:28;;;;;;;34.08;13.50;;;2.00;99.90;;;;;;5137991;27;20015;-79
2023/12/27 04:58:54;;;;;;;65.82;15.27;;;2.00;99.90;;;;;;5119466;27;20160;-80
2023/12/27 05:01:19;;;;;;;19.88;11.88;;;2.00;99.90;;;;;;5119078;27;20035;-80
2023/12/27 05:03:45;;;;;;;33.42;13.43;;;2.10;99.90;;;;;;5137755;27;20031;-78
2023/12/27 05:06:12;;;;;;;122.10;15.18;;;2.10;99.90;;;;;;5137806;27;20051;-80
2023/12/27 05:08:41;;;;;;;72.32;13.70;;;2.00;99.90;;;;;;5118358;27;20031;-80
2023/12/27 05:11:18;;;;;;;64.57;13.63;;;1.90;99.90;;;;;;5119476;27;20413;-80
2023/12/27 05:13:44;;;;;;;52.08;13.00;;;1.90;99.90;;;;;;5137219;27;20033;-79
2023/12/27 05:16:10;;;;;;;42.20;12.98;;;1.90;99.90;;;;;;5137453;27;20024;-79
2023/12/27 05:18:40;;;;;;;58.78;13.77;;;2.00;99.90;;;;;;5118750;27;20481;-79
2023/12/27 05:21:14;;;;;;;209.25;21.73;;;1.90;99.90;;;;;;5119025;27;20027;-79
2023/12/27 05:23:40;;;;;;;46.17;13.68;;;1.90;99.90;;;;;;5118662;27;20019;-79
2023/12/27 05:26:06;;;;;;;47.00;16.13;;;1.90;99.90;;;;;;5118847;27;20056;-80
2023/12/27 05:28:32;;;;;;;33.08;12.63;;;1.90;99.90;;;;;;5137210;27;20041;-82
2023/12/27 05:30:58;;;;;;;34.70;13.00;;;1.90;99.90;;;;;;5137181;27;20124;-79
2023/12/27 05:33:24;;;;;;;38.67;13.10;;;1.90;99.90;;;;;;5118517;27;20031;-79
2023/12/27 05:35:51;;;;;;;74.82;16.58;;;1.90;99.90;;;;;;5107036;28;20028;-78
2023/12/27 05:38:16;;;;;;;32.55;13.18;;;2.00;99.90;;;;;;5136080;27;20041;-79
2023/12/27 05:40:42;;;;;;;35.25;13.32;;;1.90;99.90;;;;;;5117626;27;20019;-79
2023/12/27 05:43:08;;;;;;;37.78;13.40;;;1.90;99.90;;;;;;5136327;27;20019;-79
2023/12/27 05:45:34;;;;;;;40.00;14.35;;;2.00;99.90;;;;;;5118114;27;20071;-80
2023/12/27 05:48:00;;;;;;;27.33;12.43;;;2.00;99.90;;;;;;5118641;27;20086;-80
2023/12/27 05:50:25;;;;;;;32.55;14.55;;;2.00;99.90;;;;;;5137360;27;20076;-79
2023/12/27 05:52:51;;;;;;;32.13;14.80;;;2.00;99.90;;;;;;5136790;27;20090;-79
2023/12/27 05:55:17;;;;;;;22.70;12.77;;;2.00;99.90;;;;;;5136493;27;20065;-79
2023/12/27 05:57:43;;;;;;;26.40;13.10;;;2.00;99.90;;;;;;5136686;27;20015;-78
2023/12/27 06:00:09;;;;;;;59.42;14.20;;;2.00;99.90;;;;;;5115211;28;20034;-78
2023/12/27 06:02:34;;;;;;;51.83;15.00;;;2.00;99.90;;;;;;5135360;27;20015;-78
2023/12/27 06:05:00;;;;;;;40.22;14.52;;;1.90;99.90;;;;;;5114899;28;20050;-79
2023/12/27 06:07:26;;;;;;;59.50;13.95;;;1.90;99.90;;;;;;5135671;27;20035;-79
2023/12/27 06:09:52;;;;;;;49.88;14.98;;;1.80;99.90;;;;;;5136764;27;20579;-80
2023/12/27 06:12:18;;;;;;;69.18;14.65;;;1.80;99.90;;;;;;5114835;28;20015;-79
2023/12/27 06:14:44;;;;;;;50.65;15.18;;;1.70;99.90;;;;;;5110159;27;20444;-79
2023/12/27 06:17:10;;;;;;;19.15;12.75;;;1.70;99.90;;;;;;5136258;27;20449;-80
2023/12/27 06:19:36;;;;;;;43.72;13.95;;;1.70;99.90;;;;;;5136862;27;20031;-79
2023/12/27 06:22:02;;;;;;;41.00;14.88;;;1.80;99.90;;;;;;5117782;28;20011;-80
2023/12/27 06:24:28;;;;;;;53.35;14.18;;;1.80;99.90;;;;;;5120128;27;20160;-81
2023/12/27 06:26:54;;;;;;;25.38;14.52;;;1.80;99.90;;;;;;5143407;27;20051;-80
2023/12/27 06:29:20;;;;;;;71.03;15.43;;;1.80;99.90;;;;;;5143447;27;20060;-80
2023/12/27 06:31:45;;;;;;;57.83;14.05;;;1.80;99.90;;;;;;5120984;28;20028;-81
2023/12/27 06:34:11;;;;;;;65.68;14.57;;;1.70;99.90;;;;;;5135412;27;20042;-80
2023/12/27 06:36:38;;;;;;;63.55;15.75;;;1.60;99.90;;;;;;5143038;27;20027;-79
2023/12/27 06:39:06;;;;;;;64.20;15.15;;;1.60;99.90;;;;;;5124886;27;20096;-80
2023/12/27 06:41:34;;;;;;;76.90;15.90;;;1.60;99.90;;;;;;5121252;28;20026;-80
2023/12/27 06:44:00;;;;;;;68.05;15.65;;;1.60;99.90;;;;;;5117708;27;20027;-79
2023/12/27 06:46:26;;;;;;;90.53;17.38;;;1.70;99.90;;;;;;5142874;27;20052;-79
2023/12/27 06:48:51;;;;;;;45.13;14.48;;;1.70;99.90;;;;;;5124842;27;20027;-79
2023/12/27 06:51:17;;;;;;;49.33;15.50;;;1.70;99.90;;;;;;5143151;27;20429;-80
2023/12/27 06:53:43;;;;;;;45.20;14.50;;;1.70;99.90;;;;;;5143033;27;20532;-80
2023/12/27 06:56:10;;;;;;;52.67;16.58;;;1.70;99.90;;;;;;5143176;27;20023;-79
2023/12/27 06:58:36;;;;;;;67.53;15.55;;;1.70;99.90;;;;;;5124848;27;20031;-78
2023/12/27 07:01:02;;;;;;;60.95;15.38;;;1.80;99.90;;;;;;5143117;27;20026;-79
2023/12/27 07:03:27;;;;;;;54.83;14.98;;;1.70;99.90;;;;;;5143453;27;20026;-79
2023/12/27 07:05:53;;;;;;;87.65;16.40;;;1.70;99.90;;;;;;5124542;27;20076;-79
2023/12/27 07:08:19;;;;;;;50.03;13.85;;;1.70;99.90;;;;;;5143321;27;20040;-80
2023/12/27 07:10:44;;;;;;;77.85;20.70;;;1.70;99.90;;;;;;5120922;28;20085;-80
2023/12/27 07:13:10;;;;;;;70.38;14.95;;;1.70;99.90;;;;;;5135869;27;20062;-80
2023/12/27 07:15:35;;;;;;;42.42;15.38;;;1.70;99.90;;;;;;5142788;27;20081;-79
2023/12/27 07:18:01;;;;;;;50.83;14.30;;;1.60;99.90;;;;;;5135524;27;20031;-79
2023/12/27 07:20:27;;;;;;;32.53;14.98;;;1.60;99.90;;;;;;5115459;27;20016;-80
2023/12/27 07:22:53;;;;;;;45.05;14.25;;;1.60;99.90;;;;;;5137570;27;20106;-80
2023/12/27 07:25:19;;;;;;;58.28;12.93;;;1.60;99.90;;;;;;5118840;27;20019;-80
2023/12/27 07:27:45;;;;;;;48.25;13.50;;;1.60;99.90;;;;;;5137586;27;20399;-80
2023/12/27 07:30:11;;;;;;;79.15;14.93;;;1.50;99.90;;;;;;5138022;27;20122;-80
2023/12/27 07:32:37;;;;;;;64.15;13.32;;;1.50;99.90;;;;;;5119875;27;20034;-79
2023/12/27 07:35:04;;;;;;;83.22;16.08;;;1.40;99.90;;;;;;5119707;27;20019;-85
2023/12/27 07:37:30;;;;;;;38.35;13.10;;;1.40;99.90;;;;;;5135058;27;20505;-84
2023/12/27 07:39:56;;;;;;;48.70;14.55;;;1.40;99.90;;;;;;5134740;27;20027;-84
2023/12/27 07:42:21;;;;;;;29.50;11.90;;;1.40;99.90;;;;;;5117203;27;20028;-84
2023/12/27 07:44:47;;;;;;;72.60;16.88;;;1.40;99.90;;;;;;5116579;27;20027;-85
2023/12/27 07:47:13;;;;;;;60.38;23.48;;;1.40;99.90;;;;;;5116261;27;20513;-85
2023/12/27 07:49:39;;;;;;;44.50;15.40;;;1.50;99.90;;;;;;5134541;27;20469;-84
2023/12/27 07:52:05;;;;;;;24.67;14.02;;;1.50;99.90;;;;;;5127672;27;20641;-84
2023/12/27 07:54:31;;;;;;;33.67;15.30;;;1.50;99.90;;;;;;5116389;27;20573;-85
2023/12/27 07:56:57;;;;;;;55.75;14.45;;;1.40;99.90;;;;;;5134646;27;20479;-84
2023/12/27 07:59:23;;;;;;;26.52;15.05;;;1.40;99.90;;;;;;5134899;27;20383;-85
2023/12/27 08:01:48;;;;;;;27.77;16.77;;;1.40;99.90;;;;;;5115800;27;20582;-85
2023/12/27 08:04:14;;;;;;;36.40;21.00;;;1.40;99.90;;;;;;5134631;27;20026;-85
2023/12/27 08:06:40;;;;;;;23.67;16.35;;;1.40;99.90;;;;;;5134300;27;20027;-84
2023/12/27 08:09:06;;;;;;;25.80;16.35;;;1.40;99.90;;;;;;5134660;27;20079;-83
2023/12/27 08:11:31;;;;;;;35.08;18.85;;;1.40;99.90;;;;;;5115724;27;20028;-83
2023/12/27 08:13:57;;;;;;;34.47;18.58;;;1.40;99.90;;;;;;5111961;28;20481;-83
2023/12/27 08:16:24;;;;;;;39.53;23.30;;;1.30;99.90;;;;;;5113081;27;20027;-82
2023/12/27 08:18:50;;;;;;;21.25;15.52;;;1.40;99.90;;;;;;5115692;27;20128;-84
2023/12/27 08:21:16;;;;;;;27.45;16.08;;;1.40;99.90;;;;;;5134532;27;20027;-83
2023/12/27 08:23:42;;;;;;;23.25;15.55;;;1.40;99.90;;;;;;5111410;28;20031;-83
2023/12/27 08:26:08;;;;;;;28.15;18.20;;;1.40;99.90;;;;;;5126363;27;20027;-83
2023/12/27 08:28:36;;;;;;;23.08;16.63;;;1.40;99.90;;;;;;5115668;27;20035;-82
2023/12/27 08:31:06;;;;;;;27.73;17.35;;;1.40;99.90;;;;;;5134092;27;20031;-84
2023/12/27 08:33:35;;;;;;;21.67;15.48;;;1.40;99.90;;;;;;5103559;27;20417;-83
2023/12/27 08:36:01;;;;;;;27.88;18.77;;;1.40;99.90;;;;;;5115301;27;20418;-84
2023/12/27 08:38:27;;;;;;;27.95;17.88;;;1.50;99.90;;;;;;5133482;27;20020;-84
2023/12/27 08:40:53;;;;;;;28.73;17.85;;;1.50;99.90;;;;;;5115546;27;20023;-84
2023/12/27 08:43:19;;;;;;;23.52;16.83;;;1.60;99.90;;;;;;5134153;27;20103;-83
2023/12/27 08:45:46;;;;;;;25.42;16.33;;;1.60;99.90;;;;;;5132889;27;20478;-84
2023/12/27 08:48:12;;;;;;;23.48;17.15;;;1.70;99.90;;;;;;5133848;27;20527;-84
2023/12/27 08:50:38;;;;;;;23.60;16.70;;;1.80;99.90;;;;;;5134026;27;20041;-84
2023/12/27 08:53:04;;;;;;;21.73;17.42;;;1.90;99.90;;;;;;5133818;27;20023;-85
2023/12/27 08:55:30;;;;;;;26.48;18.70;;;2.00;99.90;;;;;;5133038;27;20115;-85
2023/12/27 08:57:55;;;;;;;96.25;55.47;;;2.20;99.90;;;;;;5128325;27;20027;-84
2023/12/27 09:00:21;;;;;;;163.93;63.22;;;2.30;99.90;;;;;;5133520;27;20436;-85
2023/12/27 09:02:47;;;;;;;630.53;249.23;;;2.40;99.90;;;;;;5132815;27;20565;-85
2023/12/27 09:05:13;;;;;;;74.95;36.15;;;2.50;99.90;;;;;;5132891;27;20109;-86
2023/12/27 09:07:38;;;;;;;81.90;33.67;;;2.70;99.90;;;;;;5133457;27;20095;-83
2023/12/27 09:10:04;;;;;;;105.90;37.72;;;2.90;99.90;;;;;;5132903;27;20153;-83
2023/12/27 09:12:30;;;;;;;34.63;19.15;;;3.00;99.90;;;;;;5132929;27;20019;-83
2023/12/27 09:14:56;;;;;;;28.92;17.10;;;3.20;99.90;;;;;;5132541;27;20035;-82
2023/12/27 09:17:22;;;;;;;116.00;44.88;;;3.40;99.90;;;;;;5131886;27;20574;-84
2023/12/27 09:19:47;;;;;;;173.18;64.38;;;3.50;99.90;;;;;;5132691;27;20023;-83
2023/12/27 09:22:13;;;;;;;78.30;40.40;;;3.60;99.90;;;;;;5133286;27;20020;-81
2023/12/27 09:24:41;;;;;;;29.15;16.45;;;3.70;99.90;;;;;;5114774;27;20115;-85
2023/12/27 09:27:07;;;;;;;69.43;29.33;;;4.00;99.90;;;;;;5133169;27;20141;-80
2023/12/27 09:29:33;;;;;;;27.70;15.93;;;4.10;99.90;;;;;;5112655;27;20058;-78
2023/12/27 09:31:59;;;;;;;36.30;24.48;;;4.40;99.90;;;;;;5108409;27;20027;-82
2023/12/27 09:34:24;;;;;;;18.08;14.65;;;4.60;99.90;;;;;;5129227;27;20030;-80
2023/12/27 09:36:50;;;;;;;55.20;29.73;;;5.00;99.90;;;;;;5115031;27;20083;-78
2023/12/27 09:39:16;;;;;;;66.35;38.45;;;5.20;99.90;;;;;;5114671;27;20027;-76
2023/12/27 09:41:42;;;;;;;22.95;14.95;;;5.30;99.90;;;;;;5117206;27;20031;-80
2023/12/27 09:44:10;;;;;;;43.60;23.92;;;5.60;99.90;;;;;;5133321;27;20023;-79
2023/12/27 09:46:38;;;;;;;33.83;19.95;;;5.90;99.90;;;;;;5116899;27;20035;-78
2023/12/27 09:49:05;;;;;;;72.90;42.65;;;6.10;99.90;;;;;;5135856;27;20024;-78
2023/12/27 09:51:32;;;;;;;23.83;16.35;;;6.30;99.90;;;;;;5135940;27;20023;-78
2023/12/27 09:53:58;;;;;;;12.10;9.35;;;6.50;99.90;;;;;;5116624;27;20043;-79
2023/12/27 09:56:25;;;;;;;39.55;22.77;;;6.70;99.90;;;;;;5135303;27;20106;-79
2023/12/27 09:58:58;;;;;;;15.02;9.55;;;6.80;99.90;;;;;;5114998;28;20036;-78
2023/12/27 10:01:26;;;;;;;33.83;19.67;;;7.10;99.90;;;;;;5129651;27;20048;-78
2023/12/27 10:04:01;;;;;;;18.45;8.55;;;7.20;99.90;;;;;;5112766;27;20479;-77
2023/12/27 10:06:44;;;;;;;23.38;15.52;;;7.30;99.90;;;;;;5113528;27;20547;-77
2023/12/27 10:09:13;;;;;;;32.97;19.80;;;7.50;99.90;;;;;;5132672;27;20027;-78
2023/12/27 10:11:41;;;;;;;14.05;10.23;;;7.50;99.90;;;;;;5134481;27;20031;-79
2023/12/27 10:14:11;;;;;;;22.42;14.65;;;7.60;99.90;;;;;;5134835;27;20543;-80
2023/12/27 10:16:37;;;;;;;15.67;11.43;;;7.80;99.90;;;;;;5134992;27;20038;-77
2023/12/27 10:19:07;;;;;;;15.70;8.95;;;7.90;99.90;;;;;;5135478;27;20102;-76
2023/12/27 10:21:43;;;;;;;;;;;8.00;99.90;;;;;;5135790;27;20399;-76
2023/12/27 10:24:12;;;;;;;18.88;11.07;;;8.10;99.90;;;;;;5134557;28;19931;-78
2023/12/27 10:26:38;;;;;;;12.85;8.70;;;8.20;99.90;;;;;;5116946;28;20114;-79
2023/12/27 10:29:05;;;;;;;9.27;7.35;;;8.40;99.90;;;;;;5116700;28;20065;-77
2023/12/27 10:31:30;;;;;;;11.02;7.25;;;8.50;99.90;;;;;;5116547;28;20172;-78
2023/12/27 10:34:00;;;;;;;19.67;13.77;;;8.60;99.90;;;;;;5134198;28;20092;-79
2023/12/27 10:36:27;;;;;;;11.23;6.70;;;8.70;99.90;;;;;;5116551;28;20176;-77
2023/12/27 10:38:52;;;;;;;10.40;8.65;;;8.80;99.90;;;;;;5135279;28;20042;-77
2023/12/27 10:41:18;;;;;;;14.23;9.15;;;8.80;99.90;;;;;;5117217;28;20078;-75
2023/12/27 10:43:46;;;;;;;16.40;12.63;;;8.90;99.90;;;;;;5115375;28;20034;-77
2023/12/27 10:46:11;;;;;;;15.93;13.23;;;8.90;99.90;;;;;;5115667;28;20051;-77
2023/12/27 10:48:40;;;;;;;12.00;8.65;;;8.90;99.90;;;;;;5135085;28;20079;-77
2023/12/27 10:51:09;;;;;;;15.73;12.30;;;9.00;99.90;;;;;;5135264;28;20027;-75
2023/12/27 10:53:35;;;;;;;13.38;11.32;;;9.10;99.90;;;;;;5133973;28;20023;-78
2023/12/27 10:56:06;;;;;;;23.08;16.90;;;9.20;99.90;;;;;;5134830;28;20024;-77
2023/12/27 10:58:33;;;;;;;11.07;7.75;;;9.20;99.90;;;;;;5135116;28;20058;-78
2023/12/27 11:01:00;;;;;;;13.30;10.20;;;9.30;99.90;;;;;;5116484;28;20031;-82
2023/12/27 11:03:28;;;;;;;11.50;8.48;;;9.40;99.90;;;;;;5115741;28;20459;-76
2023/12/27 11:05:56;;;;;;;18.85;11.02;;;9.40;99.90;;;;;;5135007;28;20019;-80
2023/12/27 11:08:24;;;;;;;10.60;8.32;;;9.50;99.90;;;;;;5133457;28;20027;-78
2023/12/27 11:10:51;;;;;;;10.60;7.45;;;9.60;99.90;;;;;;5136166;27;20027;-80
2023/12/27 11:13:19;;;;;;;9.23;7.80;;;9.70;99.90;;;;;;5119720;27;20031;-77
2023/12/27 11:15:46;;;;;;;10.88;7.57;;;9.80;99.90;;;;;;5137693;27;20011;-79
2023/12/27 11:18:12;;;;;;;12.15;7.45;;;9.90;99.90;;;;;;5138353;27;20101;-76
2023/12/27 11:20:40;;;;;;;9.00;6.63;;;9.90;99.90;;;;;;5119995;27;20027;-77
2023/12/27 11:23:06;;;;;;;11.77;6.07;;;10.00;99.90;;;;;;5124916;27;20544;-77
2023/12/27 11:25:32;;;;;;;7.10;6.32;;;9.90;99.90;;;;;;5137732;27;20019;-79
2023/12/27 11:28:02;;;;;;;6.30;5.70;;;10.00;99.90;;;;;;5119623;27;20031;-83
2023/12/27 11:30:28;;;;;;;9.15;5.28;;;10.10;99.90;;;;;;5116623;27;20026;-76
2023/12/27 11:32:54;;;;;;;7.18;5.65;;;10.20;99.90;;;;;;5115902;27;20061;-76
2023/12/27 11:35:32;;;;;;;6.85;5.43;;;10.20;99.90;;;;;;5134386;27;20048;-79
2023/12/27 11:38:15;;;;;;;6.22;5.63;;;10.20;99.90;;;;;;5115507;27;20062;-75
2023/12/27 11:40:43;;;;;;;6.65;5.28;;;10.20;99.90;;;;;;5109009;27;20024;-78
2023/12/27 11:43:09;;;;;;;6.47;4.90;;;10.30;99.90;;;;;;5113869;27;20038;-76
2023/12/27 11:45:57;;;;;;;8.10;5.47;;;10.20;99.90;;;;;;5133373;27;20015;-77
2023/12/27 11:48:23;;;;;;;8.82;6.18;;;10.20;99.90;;;;;;5109828;27;20558;-77
2023/12/27 11:50:48;;;;;;;141.52;67.57;;;10.40;99.90;;;;;;5133616;27;20055;-77
2023/12/27 11:53:14;;;;;;;109.47;57.20;;;10.40;99.90;;;;;;5113845;27;20770;-80
2023/12/27 11:55:41;;;;;;;6.97;5.80;;;10.40;99.90;;;;;;5133051;27;20043;-78
2023/12/27 11:58:08;;;;;;;22.48;18.30;;;10.50;99.90;;;;;;5133103;27;20023;-77
2023/12/27 12:00:35;;;;;;;16.08;12.43;;;10.60;99.90;;;;;;5133141;27;20102;-79
2023/12/27 12:03:04;;;;;;;11.82;6.85;;;10.50;99.90;;;;;;5114011;27;20019;-81
2023/12/27 12:06:05;;;;;;;9.13;5.38;;;10.60;99.90;;;;;;5115524;27;20027;-76
2023/12/27 12:08:44;;;;;;;9.70;5.60;;;10.60;99.90;;;;;;5111319;27;20084;-77
2023/12/27 12:11:14;;;;;;;7.20;5.13;;;10.50;99.90;;;;;;5130759;27;20494;-77
2023/12/27 12:13:40;;;;;;;6.13;5.25;;;10.60;99.90;;;;;;5129040;27;20038;-76
2023/12/27 12:16:06;;;;;;;8.48;5.03;;;10.60;99.90;;;;;;5114200;27;20062;-78
2023/12/27 12:18:34;;;;;;;8.90;7.15;;;10.70;99.90;;;;;;5132988;27;20030;-77
2023/12/27 12:20:59;;;;;;;8.02;5.88;;;10.70;99.90;;;;;;5114400;27;20196;-80
2023/12/27 12:23:30;;;;;;;8.80;6.10;;;10.70;99.90;;;;;;5131345;27;20023;-76
2023/12/27 12:26:03;;;;;;;7.75;5.25;;;10.80;99.90;;;;;;5114409;27;20031;-79
2023/12/27 12:28:29;;;;;;;8.88;5.40;;;10.80;99.90;;;;;;5131305;27;20031;-77
2023/12/27 12:30:56;;;;;;;6.13;4.75;;;10.80;99.90;;;;;;5097464;27;20038;-77
2023/12/27 12:33:22;;;;;;;6.95;5.65;;;10.80;99.90;;;;;;5131413;27;20031;-75
2023/12/27 12:35:50;;;;;;;10.15;5.60;;;10.80;99.90;;;;;;5132684;27;20437;-75